sensor_id;sensor_type;location;lat;lon;timestamp;pressure;altitude;pressure_sealevel;temperature;humidity
15662;BME280;7931;52.274;10.470;2022-09-12T00:01:22;100832.22;;;12.66;100.00
15662;BME280;7931;52.274;10.470;2022-09-12T00:03:53;100835.28;;;12.73;100.00
15662;BME280;7931;52.274;10.470;2022-09-12T00:06:24;100839.44;;;12.77;100.00
15662;BME280;7931;52.274;10.470;2022-09-12T00:08:50;100831.50;;;12.75;100.00
15662;BME280;7931;52.274;10.470;2022-09-12T00:11:17;100839.66;;;12.74;100.00
15662;BME280;7931;52.274;10.470;2022-09-12T00:13:43;100831.78;;;12.72;100.00
15662;BME280;7931;52.274;10.470;2022-09-12T00:16:23;100835.66;;;12.68;100.00
15662;BME280;7931;52.274;10.470;2022-09-12T00:18:49;100831.41;;;12.77;100.00
15662;BME280;7931;52.274;10.470;2022-09-12T00:21:16;100831.41;;;12.77;100.00
15662;BME280;7931;52.274;10.470;2022-09-12T00:23:43;100831.16;;;12.69;100.00
15662;BME280;7931;52.274;10.470;2022-09-12T00:26:09;100826.78;;;12.68;100.00
15662;BME280;7931;52.274;10.470;2022-09-12T00:28:36;100829.91;;;12.61;100.00
15662;BME280;7931;52.274;10.470;2022-09-12T00:31:07;100824.56;;;12.61;100.00
15662;BME280;7931;52.274;10.470;2022-09-12T00:33:33;100825.31;;;12.64;100.00
15662;BME280;7931;52.274;10.470;2022-09-12T00:36:06;100822.38;;;12.67;100.00
15662;BME280;7931;52.274;10.470;2022-09-12T00:38:33;100819.00;;;12.65;100.00
15662;BME280;7931;52.274;10.470;2022-09-12T00:41:24;100815.84;;;12.59;100.00
15662;BME280;7931;52.274;10.470;2022-09-12T00:43:54;100819.50;;;12.58;100.00
15662;BME280;7931;52.274;10.470;2022-09-12T00:49:13;100814.78;;;12.62;100.00
15662;BME280;7931;52.274;10.470;2022-09-12T00:51:47;100810.72;;;12.56;100.00
15662;BME280;7931;52.274;10.470;2022-09-12T00:54:17;100813.53;;;12.55;100.00
15662;BME280;7931;52.274;10.470;2022-09-12T00:56:44;100811.72;;;12.55;100.00
15662;BME280;7931;52.274;10.470;2022-09-12T00:59:14;100814.09;;;12.47;100.00
15662;BME280;7931;52.274;10.470;2022-09-12T01:01:41;100806.47;;;12.43;100.00
15662;BME280;7931;52.274;10.470;2022-09-12T01:04:09;100803.19;;;12.39;100.00
15662;BME280;7931;52.274;10.470;2022-09-12T01:06:39;100806.59;;;12.41;100.00
15662;BME280;7931;52.274;10.470;2022-09-12T01:09:04;100804.16;;;12.38;100.00
15662;BME280;7931;52.274;10.470;2022-09-12T01:11:31;100807.78;;;12.37;100.00
15662;BME280;7931;52.274;10.470;2022-09-12T01:13:58;100802.44;;;12.37;100.00
15662;BME280;7931;52.274;10.470;2022-09-12T01:16:24;100804.13;;;12.27;100.00
15662;BME280;7931;52.274;10.470;2022-09-12T01:22:31;100804.09;;;12.16;100.00
15662;BME280;7931;52.274;10.470;2022-09-12T01:25:05;100806.75;;;12.16;100.00
15662;BME280;7931;52.274;10.470;2022-09-12T01:30:54;100801.22;;;12.19;100.00
15662;BME280;7931;52.274;10.470;2022-09-12T01:33:39;100797.78;;;12.17;100.00
15662;BME280;7931;52.274;10.470;2022-09-12T01:36:36;100799.22;;;12.09;100.00
15662;BME280;7931;52.274;10.470;2022-09-12T01:39:28;100797.41;;;12.10;100.00
15662;BME280;7931;52.274;10.470;2022-09-12T01:42:14;100792.31;;;11.59;100.00
15662;BME280;7931;52.274;10.470;2022-09-12T01:44:50;100800.09;;;11.62;100.00
15662;BME280;7931;52.274;10.470;2022-09-12T01:47:30;100797.38;;;11.75;100.00
15662;BME280;7931;52.274;10.470;2022-09-12T01:49:59;100795.84;;;11.83;100.00
15662;BME280;7931;52.274;10.470;2022-09-12T01:52:32;100795.28;;;11.91;100.00
15662;BME280;7931;52.274;10.470;2022-09-12T01:55:24;100790.66;;;11.93;100.00
15662;BME280;7931;52.274;10.470;2022-09-12T01:58:11;100783.25;;;11.86;100.00
15662;BME280;7931;52.274;10.470;2022-09-12T02:00:59;100776.81;;;11.88;100.00
15662;BME280;7931;52.274;10.470;2022-09-12T02:03:30;100781.94;;;11.91;100.00
15662;BME280;7931;52.274;10.470;2022-09-12T02:06:06;100784.47;;;11.93;100.00
15662;BME280;7931;52.274;10.470;2022-09-12T02:08:38;100778.78;;;11.86;100.00
15662;BME280;7931;52.274;10.470;2022-09-12T02:11:07;100781.31;;;11.88;100.00
15662;BME280;7931;52.274;10.470;2022-09-12T02:13:51;100782.28;;;11.87;100.00
15662;BME280;7931;52.274;10.470;2022-09-12T02:16:34;100778.78;;;11.86;100.00
15662;BME280;7931;52.274;10.470;2022-09-12T02:19:11;100775.84;;;11.89;100.00
15662;BME280;7931;52.274;10.470;2022-09-12T02:21:44;100771.50;;;11.88;100.00
15662;BME280;7931;52.274;10.470;2022-09-12T02:24:13;100769.81;;;11.87;100.00
15662;BME280;7931;52.274;10.470;2022-09-12T02:26:53;100780.69;;;11.84;100.00
15662;BME280;7931;52.274;10.470;2022-09-12T02:29:19;100774.31;;;11.74;100.00
15662;BME280;7931;52.274;10.470;2022-09-12T02:31:47;100769.81;;;11.74;100.00
15662;BME280;7931;52.274;10.470;2022-09-12T02:37:32;100767.28;;;11.73;100.00
15662;BME280;7931;52.274;10.470;2022-09-12T02:40:02;100767.16;;;11.74;100.00
15662;BME280;7931;52.274;10.470;2022-09-12T02:42:27;100767.50;;;11.70;100.00
15662;BME280;7931;52.274;10.470;2022-09-12T02:44:54;100758.50;;;11.59;100.00
15662;BME280;7931;52.274;10.470;2022-09-12T02:47:28;100763.09;;;11.57;100.00
15662;BME280;7931;52.274;10.470;2022-09-12T02:49:56;100762.47;;;11.54;100.00
15662;BME280;7931;52.274;10.470;2022-09-12T02:52:22;100755.94;;;11.58;100.00
15662;BME280;7931;52.274;10.470;2022-09-12T02:54:49;100751.59;;;11.57;100.00
15662;BME280;7931;52.274;10.470;2022-09-12T02:57:16;100762.00;;;11.60;100.00
15662;BME280;7931;52.274;10.470;2022-09-12T02:59:43;100760.44;;;11.57;100.00
15662;BME280;7931;52.274;10.470;2022-09-12T03:02:25;100758.75;;;11.56;100.00
15662;BME280;7931;52.274;10.470;2022-09-12T03:04:59;100759.94;;;11.52;100.00
15662;BME280;7931;52.274;10.470;2022-09-12T03:07:51;100759.28;;;11.49;100.00
15662;BME280;7931;52.274;10.470;2022-09-12T03:16:11;100755.06;;;11.46;100.00
15662;BME280;7931;52.274;10.470;2022-09-12T03:19:00;100761.78;;;11.39;100.00
15662;BME280;7931;52.274;10.470;2022-09-12T03:21:35;100755.91;;;11.47;100.00
15662;BME280;7931;52.274;10.470;2022-09-12T03:24:13;100755.06;;;11.46;100.00
15662;BME280;7931;52.274;10.470;2022-09-12T03:27:01;100762.75;;;11.38;100.00
15662;BME280;7931;52.274;10.470;2022-09-12T03:29:29;100751.88;;;11.41;100.00
15662;BME280;7931;52.274;10.470;2022-09-12T03:31:57;100761.06;;;11.37;100.00
15662;BME280;7931;52.274;10.470;2022-09-12T03:34:24;100753.78;;;11.39;100.00
15662;BME280;7931;52.274;10.470;2022-09-12T03:36:51;100757.56;;;11.37;100.00
15662;BME280;7931;52.274;10.470;2022-09-12T03:39:16;100758.41;;;11.37;100.00
15662;BME280;7931;52.274;10.470;2022-09-12T03:41:42;100755.94;;;11.34;100.00
15662;BME280;7931;52.274;10.470;2022-09-12T03:44:08;100765.38;;;11.27;100.00
15662;BME280;7931;52.274;10.470;2022-09-12T03:46:33;100762.53;;;11.04;100.00
15662;BME280;7931;52.274;10.470;2022-09-12T03:48:59;100759.44;;;11.11;100.00
15662;BME280;7931;52.274;10.470;2022-09-12T03:51:24;100757.72;;;11.10;100.00
15662;BME280;7931;52.274;10.470;2022-09-12T03:53:50;100757.72;;;11.10;100.00
15662;BME280;7931;52.274;10.470;2022-09-12T03:56:15;100760.41;;;11.10;100.00
15662;BME280;7931;52.274;10.470;2022-09-12T03:58:42;100757.53;;;11.13;100.00
15662;BME280;7931;52.274;10.470;2022-09-12T04:01:18;100763.69;;;11.13;100.00
15662;BME280;7931;52.274;10.470;2022-09-12T04:03:45;100755.94;;;10.97;100.00
15662;BME280;7931;52.274;10.470;2022-09-12T04:06:12;100755.41;;;10.92;100.00
15662;BME280;7931;52.274;10.470;2022-09-12T04:08:39;100768.31;;;10.98;100.00
15662;BME280;7931;52.274;10.470;2022-09-12T04:11:07;100766.00;;;10.94;100.00
15662;BME280;7931;52.274;10.470;2022-09-12T04:13:34;100765.75;;;10.97;100.00
15662;BME280;7931;52.274;10.470;2022-09-12T04:16:00;100762.75;;;11.01;100.00
15662;BME280;7931;52.274;10.470;2022-09-12T04:18:26;100770.53;;;11.04;100.00
15662;BME280;7931;52.274;10.470;2022-09-12T04:20:52;100769.81;;;11.02;100.00
15662;BME280;7931;52.274;10.470;2022-09-12T04:23:17;100762.22;;;10.96;100.00
15662;BME280;7931;52.274;10.470;2022-09-12T04:25:43;100765.41;;;11.01;100.00
15662;BME280;7931;52.274;10.470;2022-09-12T04:28:08;100763.84;;;10.99;100.00
15662;BME280;7931;52.274;10.470;2022-09-12T04:30:34;100769.72;;;10.91;100.00
15662;BME280;7931;52.274;10.470;2022-09-12T04:32:59;100768.41;;;10.97;100.00
15662;BME280;7931;52.274;10.470;2022-09-12T04:35:25;100775.59;;;10.84;100.00
15662;BME280;7931;52.274;10.470;2022-09-12T04:37:50;100770.03;;;10.87;100.00
15662;BME280;7931;52.274;10.470;2022-09-12T04:40:16;100773.53;;;10.87;100.00
15662;BME280;7931;52.274;10.470;2022-09-12T04:42:41;100775.28;;;10.88;100.00
15662;BME280;7931;52.274;10.470;2022-09-12T04:45:07;100775.28;;;10.88;100.00
15662;BME280;7931;52.274;10.470;2022-09-12T04:47:33;100773.97;;;10.81;100.00
15662;BME280;7931;52.274;10.470;2022-09-12T04:49:58;100772.69;;;10.87;100.00
15662;BME280;7931;52.274;10.470;2022-09-12T04:52:24;100785.28;;;10.72;100.00
15662;BME280;7931;52.274;10.470;2022-09-12T04:54:49;100778.16;;;10.72;100.00
15662;BME280;7931;52.274;10.470;2022-09-12T04:57:15;100779.50;;;10.78;100.00
15662;BME280;7931;52.274;10.470;2022-09-12T04:59:40;100775.69;;;10.82;100.00
15662;BME280;7931;52.274;10.470;2022-09-12T05:02:05;100774.75;;;10.83;100.00
15662;BME280;7931;52.274;10.470;2022-09-12T05:04:31;100784.19;;;10.87;100.00
15662;BME280;7931;52.274;10.470;2022-09-12T05:06:56;100785.28;;;10.85;100.00
15662;BME280;7931;52.274;10.470;2022-09-12T05:09:22;100772.09;;;10.83;100.00
15662;BME280;7931;52.274;10.470;2022-09-12T05:11:48;100776.13;;;10.89;100.00
15662;BME280;7931;52.274;10.470;2022-09-12T05:14:13;100772.59;;;10.88;100.00
15662;BME280;7931;52.274;10.470;2022-09-12T05:16:39;100773.66;;;10.86;100.00
15662;BME280;7931;52.274;10.470;2022-09-12T05:19:05;100777.81;;;10.90;100.00
15662;BME280;7931;52.274;10.470;2022-09-12T05:21:31;100772.28;;;10.93;100.00
15662;BME280;7931;52.274;10.470;2022-09-12T05:23:57;100779.91;;;10.97;100.00
15662;BME280;7931;52.274;10.470;2022-09-12T05:26:26;100788.44;;;11.02;100.00
15662;BME280;7931;52.274;10.470;2022-09-12T05:28:52;100781.44;;;10.89;100.00
15662;BME280;7931;52.274;10.470;2022-09-12T05:31:23;100785.22;;;10.97;100.00
15662;BME280;7931;52.274;10.470;2022-09-12T05:33:50;100782.88;;;11.05;100.00
15662;BME280;7931;52.274;10.470;2022-09-12T05:36:19;100787.25;;;11.06;100.00
15662;BME280;7931;52.274;10.470;2022-09-12T05:38:45;100787.38;;;11.05;100.00
15662;BME280;7931;52.274;10.470;2022-09-12T05:41:17;100782.94;;;11.17;100.00
15662;BME280;7931;52.274;10.470;2022-09-12T05:43:44;100788.72;;;11.23;100.00
15662;BME280;7931;52.274;10.470;2022-09-12T05:46:15;100790.28;;;11.26;100.00
15662;BME280;7931;52.274;10.470;2022-09-12T05:48:42;100791.56;;;11.33;100.00
15662;BME280;7931;52.274;10.470;2022-09-12T05:51:14;100784.63;;;11.54;100.00
15662;BME280;7931;52.274;10.470;2022-09-12T05:53:44;100786.06;;;11.47;100.00
15662;BME280;7931;52.274;10.470;2022-09-12T05:56:12;100783.91;;;11.52;100.00
15662;BME280;7931;52.274;10.470;2022-09-12T05:58:42;100788.31;;;11.65;100.00
15662;BME280;7931;52.274;10.470;2022-09-12T06:01:11;100780.47;;;11.87;100.00
15662;BME280;7931;52.274;10.470;2022-09-12T06:03:42;100795.00;;;11.83;100.00
15662;BME280;7931;52.274;10.470;2022-09-12T06:06:09;100794.41;;;12.15;100.00
15662;BME280;7931;52.274;10.470;2022-09-12T06:08:37;100797.31;;;12.23;100.00
15662;BME280;7931;52.274;10.470;2022-09-12T06:11:04;100799.03;;;12.24;100.00
15662;BME280;7931;52.274;10.470;2022-09-12T06:13:35;100795.63;;;12.22;100.00
15662;BME280;7931;52.274;10.470;2022-09-12T06:16:06;100793.22;;;12.41;100.00
15662;BME280;7931;52.274;10.470;2022-09-12T06:18:33;100787.31;;;12.49;100.00
15662;BME280;7931;52.274;10.470;2022-09-12T06:21:10;100786.72;;;12.68;100.00
15662;BME280;7931;52.274;10.470;2022-09-12T06:23:37;100790.38;;;12.89;100.00
15662;BME280;7931;52.274;10.470;2022-09-12T06:26:04;100790.63;;;12.97;100.00
15662;BME280;7931;52.274;10.470;2022-09-12T06:28:33;100785.75;;;13.02;100.00
15662;BME280;7931;52.274;10.470;2022-09-12T06:31:13;100792.28;;;13.09;100.00
15662;BME280;7931;52.274;10.470;2022-09-12T06:33:41;100791.22;;;13.23;100.00
15662;BME280;7931;52.274;10.470;2022-09-12T06:36:13;100784.03;;;13.24;100.00
15662;BME280;7931;52.274;10.470;2022-09-12T06:38:39;100787.91;;;13.42;100.00
15662;BME280;7931;52.274;10.470;2022-09-12T06:41:06;100780.31;;;13.58;100.00
15662;BME280;7931;52.274;10.470;2022-09-12T06:43:33;100774.66;;;13.73;100.00
15662;BME280;7931;52.274;10.470;2022-09-12T06:45:58;100773.66;;;13.85;100.00
15662;BME280;7931;52.274;10.470;2022-09-12T06:48:24;100773.91;;;13.82;100.00
15662;BME280;7931;52.274;10.470;2022-09-12T06:50:57;100766.78;;;14.03;100.00
15662;BME280;7931;52.274;10.470;2022-09-12T06:53:23;100771.59;;;14.09;100.00
15662;BME280;7931;52.274;10.470;2022-09-12T06:55:59;100774.59;;;14.16;100.00
15662;BME280;7931;52.274;10.470;2022-09-12T06:58:26;100768.41;;;14.36;100.00
15662;BME280;7931;52.274;10.470;2022-09-12T07:00:52;100767.88;;;14.43;100.00
15662;BME280;7931;52.274;10.470;2022-09-12T07:03:18;100767.97;;;14.52;100.00
15662;BME280;7931;52.274;10.470;2022-09-12T07:05:46;100774.06;;;14.64;100.00
15662;BME280;7931;52.274;10.470;2022-09-12T07:08:12;100766.66;;;14.77;100.00
15662;BME280;7931;52.274;10.470;2022-09-12T07:10:37;100770.97;;;14.89;100.00
15662;BME280;7931;52.274;10.470;2022-09-12T07:13:02;100774.63;;;14.98;100.00
15662;BME280;7931;52.274;10.470;2022-09-12T07:15:27;100778.66;;;15.13;100.00
15662;BME280;7931;52.274;10.470;2022-09-12T07:17:53;100780.94;;;15.28;100.00
15662;BME280;7931;52.274;10.470;2022-09-12T07:20:18;100780.25;;;15.35;100.00
15662;BME280;7931;52.274;10.470;2022-09-12T07:22:44;100783.53;;;15.39;100.00
15662;BME280;7931;52.274;10.470;2022-09-12T07:25:09;100784.94;;;15.43;100.00
15662;BME280;7931;52.274;10.470;2022-09-12T07:27:34;100789.19;;;15.55;100.00
15662;BME280;7931;52.274;10.470;2022-09-12T07:30:04;100783.13;;;15.63;100.00
15662;BME280;7931;52.274;10.470;2022-09-12T07:32:29;100783.59;;;15.78;100.00
15662;BME280;7931;52.274;10.470;2022-09-12T07:34:55;100775.97;;;16.02;100.00
15662;BME280;7931;52.274;10.470;2022-09-12T07:37:20;100781.06;;;16.15;100.00
15662;BME280;7931;52.274;10.470;2022-09-12T07:39:45;100786.97;;;16.18;100.00
15662;BME280;7931;52.274;10.470;2022-09-12T07:42:11;100781.88;;;16.25;100.00
15662;BME280;7931;52.274;10.470;2022-09-12T07:44:37;100783.94;;;16.51;100.00
15662;BME280;7931;52.274;10.470;2022-09-12T07:47:02;100778.97;;;16.65;100.00
15662;BME280;7931;52.274;10.470;2022-09-12T07:49:28;100780.19;;;16.71;100.00
15662;BME280;7931;52.274;10.470;2022-09-12T07:51:55;100780.59;;;16.86;100.00
15662;BME280;7931;52.274;10.470;2022-09-12T07:54:20;100777.16;;;17.03;100.00
15662;BME280;7931;52.274;10.470;2022-09-12T07:56:46;100781.25;;;17.25;100.00
15662;BME280;7931;52.274;10.470;2022-09-12T07:59:11;100775.09;;;17.15;100.00
15662;BME280;7931;52.274;10.470;2022-09-12T08:01:37;100784.00;;;17.43;100.00
15662;BME280;7931;52.274;10.470;2022-09-12T08:04:04;100790.66;;;17.66;100.00
15662;BME280;7931;52.274;10.470;2022-09-12T08:06:30;100777.31;;;17.75;100.00
15662;BME280;7931;52.274;10.470;2022-09-12T08:08:57;100783.38;;;17.94;100.00
15662;BME280;7931;52.274;10.470;2022-09-12T08:11:24;100783.97;;;18.06;100.00
15662;BME280;7931;52.274;10.470;2022-09-12T08:13:50;100786.28;;;18.19;100.00
15662;BME280;7931;52.274;10.470;2022-09-12T08:16:18;100778.41;;;18.26;100.00
15662;BME280;7931;52.274;10.470;2022-09-12T08:18:48;100784.59;;;18.44;100.00
15662;BME280;7931;52.274;10.470;2022-09-12T08:21:22;100785.66;;;18.51;100.00
15662;BME280;7931;52.274;10.470;2022-09-12T08:24:06;100788.16;;;18.70;100.00
15662;BME280;7931;52.274;10.470;2022-09-12T08:26:33;100792.00;;;18.94;100.00
15662;BME280;7931;52.274;10.470;2022-09-12T08:28:59;100788.56;;;19.18;100.00
15662;BME280;7931;52.274;10.470;2022-09-12T08:31:26;100787.19;;;19.14;100.00
15662;BME280;7931;52.274;10.470;2022-09-12T08:33:54;100787.09;;;19.32;100.00
15662;BME280;7931;52.274;10.470;2022-09-12T08:36:22;100793.28;;;19.66;100.00
15662;BME280;7931;52.274;10.470;2022-09-12T08:38:50;100783.50;;;19.65;100.00
15662;BME280;7931;52.274;10.470;2022-09-12T08:41:28;100788.25;;;19.71;100.00
15662;BME280;7931;52.274;10.470;2022-09-12T08:46:39;100782.38;;;19.92;100.00
15662;BME280;7931;52.274;10.470;2022-09-12T08:49:14;100783.53;;;20.06;100.00
15662;BME280;7931;52.274;10.470;2022-09-12T08:51:44;100769.53;;;20.51;100.00
15662;BME280;7931;52.274;10.470;2022-09-12T08:54:23;100772.38;;;20.42;99.70
15662;BME280;7931;52.274;10.470;2022-09-12T08:56:57;100773.03;;;20.68;99.13
15662;BME280;7931;52.274;10.470;2022-09-12T08:59:24;100773.97;;;20.92;97.21
15662;BME280;7931;52.274;10.470;2022-09-12T09:01:53;100770.53;;;21.06;94.38
15662;BME280;7931;52.274;10.470;2022-09-12T09:04:34;100781.53;;;21.52;91.23
15662;BME280;7931;52.274;10.470;2022-09-12T09:10:20;100778.34;;;21.94;83.27
15662;BME280;7931;52.274;10.470;2022-09-12T09:18:32;100765.91;;;22.00;73.88
15662;BME280;7931;52.274;10.470;2022-09-12T09:21:24;100761.72;;;22.20;74.50
15662;BME280;7931;52.274;10.470;2022-09-12T09:23:58;100760.75;;;22.51;74.40
15662;BME280;7931;52.274;10.470;2022-09-12T09:26:40;100758.88;;;22.81;71.85
15662;BME280;7931;52.274;10.470;2022-09-12T09:29:14;100762.84;;;23.08;70.15
15662;BME280;7931;52.274;10.470;2022-09-12T09:31:45;100762.00;;;23.07;69.87
15662;BME280;7931;52.274;10.470;2022-09-12T09:34:18;100756.09;;;23.04;67.54
15662;BME280;7931;52.274;10.470;2022-09-12T09:36:57;100756.88;;;23.34;67.66
15662;BME280;7931;52.274;10.470;2022-09-12T09:39:45;100759.16;;;23.67;67.90
15662;BME280;7931;52.274;10.470;2022-09-12T09:42:40;100752.28;;;23.34;66.02
15662;BME280;7931;52.274;10.470;2022-09-12T09:45:14;100744.66;;;23.59;65.11
15662;BME280;7931;52.274;10.470;2022-09-12T09:47:47;100741.69;;;22.74;66.28
15662;BME280;7931;52.274;10.470;2022-09-12T09:50:15;100744.41;;;22.74;66.57
15662;BME280;7931;52.274;10.470;2022-09-12T09:52:41;100745.03;;;22.76;66.27
15662;BME280;7931;52.274;10.470;2022-09-12T09:55:12;100747.75;;;22.76;66.96
15662;BME280;7931;52.274;10.470;2022-09-12T09:57:42;100735.53;;;22.13;67.92
15662;BME280;7931;52.274;10.470;2022-09-12T10:00:21;100736.63;;;23.00;67.59
15662;BME280;7931;52.274;10.470;2022-09-12T10:05:51;100727.66;;;23.72;61.40
15662;BME280;7931;52.274;10.470;2022-09-12T10:08:30;100728.09;;;23.18;60.59
15662;BME280;7931;52.274;10.470;2022-09-12T10:11:06;100728.94;;;23.76;60.99
15662;BME280;7931;52.274;10.470;2022-09-12T10:18:49;100719.75;;;24.55;57.34
15662;BME280;7931;52.274;10.470;2022-09-12T10:21:26;100717.34;;;24.73;56.01
15662;BME280;7931;52.274;10.470;2022-09-12T10:26:40;100709.91;;;24.54;57.05
15662;BME280;7931;52.274;10.470;2022-09-12T10:29:17;100716.16;;;24.20;57.83
15662;BME280;7931;52.274;10.470;2022-09-12T10:31:52;100712.69;;;24.32;57.59
15662;BME280;7931;52.274;10.470;2022-09-12T10:34:33;100711.09;;;24.17;57.37
15662;BME280;7931;52.274;10.470;2022-09-12T10:37:18;100708.69;;;24.56;57.68
15662;BME280;7931;52.274;10.470;2022-09-12T10:39:52;100700.56;;;24.63;58.43
15662;BME280;7931;52.274;10.470;2022-09-12T10:45:36;100712.81;;;24.80;53.58
15662;BME280;7931;52.274;10.470;2022-09-12T10:48:23;100708.59;;;24.84;53.31
15662;BME280;7931;52.274;10.470;2022-09-12T10:50:49;100707.00;;;25.03;53.40
15662;BME280;7931;52.274;10.470;2022-09-12T10:53:26;100701.63;;;24.69;54.12
15662;BME280;7931;52.274;10.470;2022-09-12T10:56:11;100698.53;;;24.78;53.08
15662;BME280;7931;52.274;10.470;2022-09-12T11:12:38;100673.06;;;24.23;55.07
15662;BME280;7931;52.274;10.470;2022-09-12T11:15:22;100670.81;;;24.61;55.69
15662;BME280;7931;52.274;10.470;2022-09-12T11:18:17;100670.63;;;24.70;54.26
15662;BME280;7931;52.274;10.470;2022-09-12T11:20:59;100680.00;;;25.02;53.24
15662;BME280;7931;52.274;10.470;2022-09-12T11:27:08;100662.94;;;25.34;52.37
15662;BME280;7931;52.274;10.470;2022-09-12T11:29:49;100663.94;;;25.20;52.97
15662;BME280;7931;52.274;10.470;2022-09-12T11:32:43;100658.19;;;23.91;54.59
15662;BME280;7931;52.274;10.470;2022-09-12T11:38:43;100658.31;;;25.35;52.62
15662;BME280;7931;52.274;10.470;2022-09-12T11:41:24;100667.53;;;25.27;51.62
15662;BME280;7931;52.274;10.470;2022-09-12T11:44:11;100661.78;;;24.61;53.91
15662;BME280;7931;52.274;10.470;2022-09-12T11:46:42;100661.00;;;24.67;51.29
15662;BME280;7931;52.274;10.470;2022-09-12T11:51:44;100659.41;;;24.86;51.77
15662;BME280;7931;52.274;10.470;2022-09-12T11:59:53;100652.84;;;24.74;52.54
15662;BME280;7931;52.274;10.470;2022-09-12T12:02:28;100656.25;;;23.42;54.58
15662;BME280;7931;52.274;10.470;2022-09-12T12:07:49;100645.78;;;23.60;54.62
15662;BME280;7931;52.274;10.470;2022-09-12T12:10:38;100649.00;;;23.28;57.30
15662;BME280;7931;52.274;10.470;2022-09-12T12:13:16;100648.78;;;24.22;54.06
15662;BME280;7931;52.274;10.470;2022-09-12T12:15:50;100637.97;;;24.00;53.09
15662;BME280;7931;52.274;10.470;2022-09-12T12:18:25;100643.63;;;24.68;53.24
15662;BME280;7931;52.274;10.470;2022-09-12T12:20:52;100628.91;;;24.21;54.34
15662;BME280;7931;52.274;10.470;2022-09-12T12:23:24;100632.41;;;24.43;52.36
15662;BME280;7931;52.274;10.470;2022-09-12T12:25:52;100641.59;;;24.83;50.82
15662;BME280;7931;52.274;10.470;2022-09-12T12:31:09;100639.38;;;24.24;52.12
15662;BME280;7931;52.274;10.470;2022-09-12T12:36:27;100625.84;;;24.72;50.74
15662;BME280;7931;52.274;10.470;2022-09-12T12:38:53;100619.50;;;24.52;51.25
15662;BME280;7931;52.274;10.470;2022-09-12T12:43:48;100626.91;;;24.36;53.30
15662;BME280;7931;52.274;10.470;2022-09-12T12:46:15;100615.50;;;24.20;52.16
15662;BME280;7931;52.274;10.470;2022-09-12T12:48:45;100611.56;;;24.57;51.12
15662;BME280;7931;52.274;10.470;2022-09-12T12:51:26;100623.47;;;24.56;51.89
15662;BME280;7931;52.274;10.470;2022-09-12T12:53:54;100613.75;;;24.95;49.61
15662;BME280;7931;52.274;10.470;2022-09-12T12:56:39;100614.19;;;24.92;50.36
15662;BME280;7931;52.274;10.470;2022-09-12T12:59:19;100603.25;;;24.78;50.17
15662;BME280;7931;52.274;10.470;2022-09-12T13:01:51;100609.31;;;24.32;50.17
15662;BME280;7931;52.274;10.470;2022-09-12T13:04:22;100610.34;;;24.66;51.52
15662;BME280;7931;52.274;10.470;2022-09-12T13:07:01;100599.31;;;24.87;50.68
15662;BME280;7931;52.274;10.470;2022-09-12T13:09:35;100603.91;;;24.80;50.41
15662;BME280;7931;52.274;10.470;2022-09-12T13:12:43;100596.00;;;24.44;51.49
15662;BME280;7931;52.274;10.470;2022-09-12T13:15:46;100588.97;;;24.63;51.44
15662;BME280;7931;52.274;10.470;2022-09-12T13:18:17;100585.09;;;24.38;52.81
15662;BME280;7931;52.274;10.470;2022-09-12T13:20:48;100588.66;;;24.10;52.80
15662;BME280;7931;52.274;10.470;2022-09-12T13:23:27;100590.16;;;23.35;53.83
15662;BME280;7931;52.274;10.470;2022-09-12T13:25:55;100580.81;;;23.16;53.74
15662;BME280;7931;52.274;10.470;2022-09-12T13:28:21;100580.75;;;24.15;52.75
15662;BME280;7931;52.274;10.470;2022-09-12T13:33:34;100575.41;;;24.35;52.33
15662;BME280;7931;52.274;10.470;2022-09-12T13:36:30;100566.00;;;24.92;51.91
15662;BME280;7931;52.274;10.470;2022-09-12T13:39:28;100569.84;;;25.37;50.48
15662;BME280;7931;52.274;10.470;2022-09-12T13:42:30;100566.72;;;25.54;48.67
15662;BME280;7931;52.274;10.470;2022-09-12T13:45:23;100562.75;;;25.63;48.19
15662;BME280;7931;52.274;10.470;2022-09-12T13:47:55;100566.50;;;26.02;47.88
15662;BME280;7931;52.274;10.470;2022-09-12T13:50:23;100569.34;;;26.20;47.24
15662;BME280;7931;52.274;10.470;2022-09-12T13:52:55;100554.91;;;26.13;46.75
15662;BME280;7931;52.274;10.470;2022-09-12T13:55:28;100559.38;;;25.87;46.27
15662;BME280;7931;52.274;10.470;2022-09-12T13:58:04;100551.41;;;25.26;47.62
15662;BME280;7931;52.274;10.470;2022-09-12T14:00:31;100550.38;;;25.60;47.62
15662;BME280;7931;52.274;10.470;2022-09-12T14:02:58;100552.88;;;25.88;46.54
15662;BME280;7931;52.274;10.470;2022-09-12T14:05:45;100544.56;;;26.28;46.38
15662;BME280;7931;52.274;10.470;2022-09-12T14:08:16;100538.78;;;25.98;46.54
15662;BME280;7931;52.274;10.470;2022-09-12T14:10:43;100535.44;;;25.96;46.05
15662;BME280;7931;52.274;10.470;2022-09-12T14:13:20;100542.06;;;26.27;45.86
15662;BME280;7931;52.274;10.470;2022-09-12T14:15:48;100532.41;;;26.31;44.23
15662;BME280;7931;52.274;10.470;2022-09-12T14:20:51;100522.88;;;25.69;46.42
15662;BME280;7931;52.274;10.470;2022-09-12T14:23:24;100530.84;;;25.57;47.36
15662;BME280;7931;52.274;10.470;2022-09-12T14:25:52;100521.94;;;26.21;46.28
15662;BME280;7931;52.274;10.470;2022-09-12T14:28:18;100522.03;;;26.39;44.96
15662;BME280;7931;52.274;10.470;2022-09-12T14:31:04;100508.97;;;24.64;47.35
15662;BME280;7931;52.274;10.470;2022-09-12T14:33:48;100506.97;;;25.79;46.18
15662;BME280;7931;52.274;10.470;2022-09-12T14:36:20;100512.69;;;26.22;46.00